sensor_id;sensor_type;location;lat;lon;timestamp;P1;durP1;ratioP1;P2;durP2;ratioP2
72117;SDS011;59992;47.490;8.736;2023-05-21T00:02:48;12.40;;;8.80;;
72117;SDS011;59992;47.490;8.736;2023-05-21T00:05:38;15.60;;;10.10;;
72117;SDS011;59992;47.490;8.736;2023-05-21T00:08:28;14.00;;;9.00;;
72117;SDS011;59992;47.490;8.736;2023-05-21T00:11:20;14.40;;;9.20;;
72117;SDS011;59992;47.490;8.736;2023-05-21T00:14:10;13.00;;;8.60;;
72117;SDS011;59992;47.490;8.736;2023-05-21T00:17:00;12.60;;;9.10;;
72117;SDS011;59992;47.490;8.736;2023-05-21T00:19:51;15.00;;;9.20;;
72117;SDS011;59992;47.490;8.736;2023-05-21T00:22:41;13.60;;;8.90;;
72117;SDS011;59992;47.490;8.736;2023-05-21T00:25:31;12.80;;;9.20;;
72117;SDS011;59992;47.490;8.736;2023-05-21T00:28:21;14.20;;;8.90;;
72117;SDS011;59992;47.490;8.736;2023-05-21T00:31:11;12.80;;;8.40;;
72117;SDS011;59992;47.490;8.736;2023-05-21T00:34:02;12.70;;;8.50;;
72117;SDS011;59992;47.490;8.736;2023-05-21T00:36:52;11.60;;;8.20;;
72117;SDS011;59992;47.490;8.736;2023-05-21T00:39:42;11.30;;;8.20;;
72117;SDS011;59992;47.490;8.736;2023-05-21T00:42:32;13.00;;;8.80;;
72117;SDS011;59992;47.490;8.736;2023-05-21T00:45:25;13.20;;;9.20;;
72117;SDS011;59992;47.490;8.736;2023-05-21T00:48:15;13.40;;;8.70;;
72117;SDS011;59992;47.490;8.736;2023-05-21T00:51:05;11.70;;;8.00;;
72117;SDS011;59992;47.490;8.736;2023-05-21T00:53:56;13.20;;;9.00;;
72117;SDS011;59992;47.490;8.736;2023-05-21T00:56:47;16.60;;;9.70;;
72117;SDS011;59992;47.490;8.736;2023-05-21T00:59:38;13.00;;;8.90;;
72117;SDS011;59992;47.490;8.736;2023-05-21T01:02:28;11.90;;;8.80;;
72117;SDS011;59992;47.490;8.736;2023-05-21T01:05:20;13.00;;;8.60;;
72117;SDS011;59992;47.490;8.736;2023-05-21T01:08:11;12.30;;;8.40;;
72117;SDS011;59992;47.490;8.736;2023-05-21T01:11:02;12.60;;;8.60;;
72117;SDS011;59992;47.490;8.736;2023-05-21T01:13:54;11.80;;;8.80;;
72117;SDS011;59992;47.490;8.736;2023-05-21T01:16:46;13.30;;;9.00;;
72117;SDS011;59992;47.490;8.736;2023-05-21T01:19:38;13.30;;;9.10;;
72117;SDS011;59992;47.490;8.736;2023-05-21T01:22:30;12.80;;;9.00;;
72117;SDS011;59992;47.490;8.736;2023-05-21T01:25:22;14.10;;;8.90;;
72117;SDS011;59992;47.490;8.736;2023-05-21T01:28:13;12.00;;;8.70;;
72117;SDS011;59992;47.490;8.736;2023-05-21T01:31:05;13.70;;;9.90;;
72117;SDS011;59992;47.490;8.736;2023-05-21T01:34:03;13.20;;;9.20;;
72117;SDS011;59992;47.490;8.736;2023-05-21T01:36:59;13.00;;;8.80;;
72117;SDS011;59992;47.490;8.736;2023-05-21T01:39:55;13.70;;;9.80;;
72117;SDS011;59992;47.490;8.736;2023-05-21T01:42:52;12.50;;;8.90;;
72117;SDS011;59992;47.490;8.736;2023-05-21T01:45:42;12.70;;;8.90;;
72117;SDS011;59992;47.490;8.736;2023-05-21T01:48:34;15.20;;;10.00;;
72117;SDS011;59992;47.490;8.736;2023-05-21T01:51:26;14.00;;;9.70;;
72117;SDS011;59992;47.490;8.736;2023-05-21T01:54:17;13.60;;;9.80;;
72117;SDS011;59992;47.490;8.736;2023-05-21T01:57:08;16.60;;;9.30;;
72117;SDS011;59992;47.490;8.736;2023-05-21T01:59:58;13.80;;;9.60;;
72117;SDS011;59992;47.490;8.736;2023-05-21T02:02:49;16.90;;;10.10;;
72117;SDS011;59992;47.490;8.736;2023-05-21T02:05:40;15.40;;;10.10;;
72117;SDS011;59992;47.490;8.736;2023-05-21T02:08:30;13.10;;;9.70;;
72117;SDS011;59992;47.490;8.736;2023-05-21T02:11:21;13.70;;;9.60;;
72117;SDS011;59992;47.490;8.736;2023-05-21T02:14:11;14.90;;;9.40;;
72117;SDS011;59992;47.490;8.736;2023-05-21T02:17:01;12.00;;;8.20;;
72117;SDS011;59992;47.490;8.736;2023-05-21T02:19:51;15.70;;;10.10;;
72117;SDS011;59992;47.490;8.736;2023-05-21T02:22:42;14.60;;;10.10;;
72117;SDS011;59992;47.490;8.736;2023-05-21T02:25:34;12.70;;;8.90;;
72117;SDS011;59992;47.490;8.736;2023-05-21T02:28:24;14.10;;;9.20;;
72117;SDS011;59992;47.490;8.736;2023-05-21T02:31:16;12.20;;;8.60;;
72117;SDS011;59992;47.490;8.736;2023-05-21T02:34:06;13.10;;;9.50;;
72117;SDS011;59992;47.490;8.736;2023-05-21T02:36:58;16.30;;;9.90;;
72117;SDS011;59992;47.490;8.736;2023-05-21T02:39:48;14.80;;;9.90;;
72117;SDS011;59992;47.490;8.736;2023-05-21T02:42:38;13.10;;;9.40;;
72117;SDS011;59992;47.490;8.736;2023-05-21T02:45:29;14.30;;;10.10;;
72117;SDS011;59992;47.490;8.736;2023-05-21T02:48:19;12.60;;;9.20;;
72117;SDS011;59992;47.490;8.736;2023-05-21T02:51:09;13.00;;;9.70;;
72117;SDS011;59992;47.490;8.736;2023-05-21T02:53:59;11.80;;;8.50;;
72117;SDS011;59992;47.490;8.736;2023-05-21T02:56:52;13.70;;;9.40;;
72117;SDS011;59992;47.490;8.736;2023-05-21T02:59:42;16.70;;;9.90;;
72117;SDS011;59992;47.490;8.736;2023-05-21T03:02:32;13.30;;;9.30;;
72117;SDS011;59992;47.490;8.736;2023-05-21T03:05:23;12.50;;;9.10;;
72117;SDS011;59992;47.490;8.736;2023-05-21T03:08:13;12.20;;;9.00;;
72117;SDS011;59992;47.490;8.736;2023-05-21T03:11:03;12.80;;;9.10;;
72117;SDS011;59992;47.490;8.736;2023-05-21T03:13:53;12.70;;;9.10;;
72117;SDS011;59992;47.490;8.736;2023-05-21T03:16:43;13.80;;;9.90;;
72117;SDS011;59992;47.490;8.736;2023-05-21T03:19:35;13.00;;;9.10;;
72117;SDS011;59992;47.490;8.736;2023-05-21T03:22:25;12.60;;;8.80;;
72117;SDS011;59992;47.490;8.736;2023-05-21T03:25:15;12.90;;;9.10;;
72117;SDS011;59992;47.490;8.736;2023-05-21T03:28:05;13.60;;;9.10;;
72117;SDS011;59992;47.490;8.736;2023-05-21T03:30:56;12.30;;;8.60;;
72117;SDS011;59992;47.490;8.736;2023-05-21T03:33:46;13.00;;;8.80;;
72117;SDS011;59992;47.490;8.736;2023-05-21T03:36:37;12.80;;;8.70;;
72117;SDS011;59992;47.490;8.736;2023-05-21T03:39:27;11.90;;;8.30;;
72117;SDS011;59992;47.490;8.736;2023-05-21T03:42:17;14.90;;;9.20;;
72117;SDS011;59992;47.490;8.736;2023-05-21T03:45:08;14.50;;;9.70;;
72117;SDS011;59992;47.490;8.736;2023-05-21T03:47:59;14.20;;;9.50;;
72117;SDS011;59992;47.490;8.736;2023-05-21T03:50:49;13.90;;;9.90;;
72117;SDS011;59992;47.490;8.736;2023-05-21T03:53:38;15.40;;;9.90;;
72117;SDS011;59992;47.490;8.736;2023-05-21T03:56:28;13.60;;;9.10;;
72117;SDS011;59992;47.490;8.736;2023-05-21T03:59:19;14.60;;;9.60;;
72117;SDS011;59992;47.490;8.736;2023-05-21T04:02:09;10.60;;;7.90;;
72117;SDS011;59992;47.490;8.736;2023-05-21T04:04:59;13.20;;;9.60;;
72117;SDS011;59992;47.490;8.736;2023-05-21T04:07:49;13.70;;;9.60;;
72117;SDS011;59992;47.490;8.736;2023-05-21T04:10:40;17.20;;;9.50;;
72117;SDS011;59992;47.490;8.736;2023-05-21T04:13:30;13.10;;;9.30;;
72117;SDS011;59992;47.490;8.736;2023-05-21T04:16:21;14.70;;;10.50;;
72117;SDS011;59992;47.490;8.736;2023-05-21T04:19:11;15.00;;;10.60;;
72117;SDS011;59992;47.490;8.736;2023-05-21T04:22:01;13.80;;;10.10;;
72117;SDS011;59992;47.490;8.736;2023-05-21T04:24:52;15.40;;;10.60;;
72117;SDS011;59992;47.490;8.736;2023-05-21T04:27:42;17.50;;;11.40;;
72117;SDS011;59992;47.490;8.736;2023-05-21T04:30:33;16.40;;;11.30;;
72117;SDS011;59992;47.490;8.736;2023-05-21T04:33:24;21.60;;;12.70;;
72117;SDS011;59992;47.490;8.736;2023-05-21T04:36:14;17.80;;;11.90;;
72117;SDS011;59992;47.490;8.736;2023-05-21T04:39:05;17.60;;;12.50;;
72117;SDS011;59992;47.490;8.736;2023-05-21T04:41:55;16.20;;;11.80;;
72117;SDS011;59992;47.490;8.736;2023-05-21T04:44:45;15.70;;;10.60;;
72117;SDS011;59992;47.490;8.736;2023-05-21T04:47:35;14.00;;;9.90;;
72117;SDS011;59992;47.490;8.736;2023-05-21T04:50:25;14.40;;;10.40;;
72117;SDS011;59992;47.490;8.736;2023-05-21T04:53:16;14.30;;;10.20;;
72117;SDS011;59992;47.490;8.736;2023-05-21T04:56:07;15.00;;;9.90;;
72117;SDS011;59992;47.490;8.736;2023-05-21T04:58:57;15.30;;;9.30;;
72117;SDS011;59992;47.490;8.736;2023-05-21T05:01:47;14.90;;;9.60;;
72117;SDS011;59992;47.490;8.736;2023-05-21T05:04:38;13.50;;;10.00;;
72117;SDS011;59992;47.490;8.736;2023-05-21T05:07:30;13.60;;;9.80;;
72117;SDS011;59992;47.490;8.736;2023-05-21T05:10:20;14.50;;;9.40;;
72117;SDS011;59992;47.490;8.736;2023-05-21T05:13:10;14.40;;;9.80;;
72117;SDS011;59992;47.490;8.736;2023-05-21T05:16:01;13.00;;;10.00;;
72117;SDS011;59992;47.490;8.736;2023-05-21T05:18:52;14.30;;;10.00;;
72117;SDS011;59992;47.490;8.736;2023-05-21T05:21:42;13.80;;;9.20;;
72117;SDS011;59992;47.490;8.736;2023-05-21T05:24:32;12.60;;;9.30;;
72117;SDS011;59992;47.490;8.736;2023-05-21T05:27:22;12.30;;;9.00;;
72117;SDS011;59992;47.490;8.736;2023-05-21T05:30:12;12.40;;;8.70;;
72117;SDS011;59992;47.490;8.736;2023-05-21T05:33:03;13.00;;;8.90;;
72117;SDS011;59992;47.490;8.736;2023-05-21T05:35:53;12.80;;;9.50;;
72117;SDS011;59992;47.490;8.736;2023-05-21T05:38:43;12.20;;;8.70;;
72117;SDS011;59992;47.490;8.736;2023-05-21T05:41:33;12.40;;;8.60;;
72117;SDS011;59992;47.490;8.736;2023-05-21T05:44:24;10.90;;;8.00;;
72117;SDS011;59992;47.490;8.736;2023-05-21T05:47:14;11.40;;;8.40;;
72117;SDS011;59992;47.490;8.736;2023-05-21T05:50:05;12.40;;;7.90;;
72117;SDS011;59992;47.490;8.736;2023-05-21T05:52:55;12.20;;;8.40;;
72117;SDS011;59992;47.490;8.736;2023-05-21T05:55:45;11.50;;;8.70;;
72117;SDS011;59992;47.490;8.736;2023-05-21T05:58:35;12.20;;;8.20;;
72117;SDS011;59992;47.490;8.736;2023-05-21T06:01:26;12.00;;;7.60;;
72117;SDS011;59992;47.490;8.736;2023-05-21T06:04:16;12.90;;;7.30;;
72117;SDS011;59992;47.490;8.736;2023-05-21T06:07:06;10.80;;;7.40;;
72117;SDS011;59992;47.490;8.736;2023-05-21T06:09:56;11.80;;;7.70;;
72117;SDS011;59992;47.490;8.736;2023-05-21T06:12:46;9.50;;;7.30;;
72117;SDS011;59992;47.490;8.736;2023-05-21T06:15:37;9.60;;;7.50;;
72117;SDS011;59992;47.490;8.736;2023-05-21T06:18:29;10.40;;;7.80;;
72117;SDS011;59992;47.490;8.736;2023-05-21T06:21:19;10.60;;;7.40;;
72117;SDS011;59992;47.490;8.736;2023-05-21T06:24:09;10.80;;;7.80;;
72117;SDS011;59992;47.490;8.736;2023-05-21T06:26:59;12.70;;;7.60;;
72117;SDS011;59992;47.490;8.736;2023-05-21T06:29:50;9.60;;;7.20;;
72117;SDS011;59992;47.490;8.736;2023-05-21T06:32:40;9.80;;;7.30;;
72117;SDS011;59992;47.490;8.736;2023-05-21T06:35:30;11.00;;;9.10;;
72117;SDS011;59992;47.490;8.736;2023-05-21T06:38:23;9.10;;;7.40;;
72117;SDS011;59992;47.490;8.736;2023-05-21T06:41:13;9.80;;;7.90;;
72117;SDS011;59992;47.490;8.736;2023-05-21T06:44:03;11.20;;;7.90;;
72117;SDS011;59992;47.490;8.736;2023-05-21T06:46:54;9.90;;;8.00;;
72117;SDS011;59992;47.490;8.736;2023-05-21T06:49:44;11.20;;;8.50;;
72117;SDS011;59992;47.490;8.736;2023-05-21T06:52:33;11.50;;;8.90;;
72117;SDS011;59992;47.490;8.736;2023-05-21T06:55:24;13.30;;;8.60;;
72117;SDS011;59992;47.490;8.736;2023-05-21T06:58:14;11.00;;;8.90;;
72117;SDS011;59992;47.490;8.736;2023-05-21T07:01:04;12.40;;;8.20;;
72117;SDS011;59992;47.490;8.736;2023-05-21T07:03:54;11.90;;;9.20;;
72117;SDS011;59992;47.490;8.736;2023-05-21T07:06:45;10.80;;;8.20;;
72117;SDS011;59992;47.490;8.736;2023-05-21T07:09:35;11.70;;;8.90;;
72117;SDS011;59992;47.490;8.736;2023-05-21T07:12:25;10.70;;;9.00;;
72117;SDS011;59992;47.490;8.736;2023-05-21T07:15:15;11.60;;;8.20;;
72117;SDS011;59992;47.490;8.736;2023-05-21T07:18:05;11.70;;;8.40;;
72117;SDS011;59992;47.490;8.736;2023-05-21T07:20:55;10.40;;;8.50;;
72117;SDS011;59992;47.490;8.736;2023-05-21T07:23:45;10.30;;;8.00;;
72117;SDS011;59992;47.490;8.736;2023-05-21T07:26:35;10.00;;;8.10;;
72117;SDS011;59992;47.490;8.736;2023-05-21T07:29:26;10.10;;;8.20;;
72117;SDS011;59992;47.490;8.736;2023-05-21T07:32:16;10.20;;;7.90;;
72117;SDS011;59992;47.490;8.736;2023-05-21T07:35:07;10.90;;;7.80;;
72117;SDS011;59992;47.490;8.736;2023-05-21T07:37:57;11.20;;;8.20;;
72117;SDS011;59992;47.490;8.736;2023-05-21T07:40:48;11.10;;;8.10;;
72117;SDS011;59992;47.490;8.736;2023-05-21T07:43:38;11.20;;;8.40;;
72117;SDS011;59992;47.490;8.736;2023-05-21T07:46:28;10.10;;;8.00;;
72117;SDS011;59992;47.490;8.736;2023-05-21T07:49:18;10.40;;;8.20;;
72117;SDS011;59992;47.490;8.736;2023-05-21T07:52:09;10.20;;;7.80;;
72117;SDS011;59992;47.490;8.736;2023-05-21T07:54:59;10.30;;;8.40;;
72117;SDS011;59992;47.490;8.736;2023-05-21T07:57:49;11.10;;;8.30;;
72117;SDS011;59992;47.490;8.736;2023-05-21T08:00:42;10.20;;;8.70;;
72117;SDS011;59992;47.490;8.736;2023-05-21T08:03:33;14.60;;;8.70;;
72117;SDS011;59992;47.490;8.736;2023-05-21T08:06:24;10.60;;;8.70;;
72117;SDS011;59992;47.490;8.736;2023-05-21T08:09:14;11.10;;;8.00;;
72117;SDS011;59992;47.490;8.736;2023-05-21T08:12:04;12.50;;;8.60;;
72117;SDS011;59992;47.490;8.736;2023-05-21T08:14:55;11.40;;;8.80;;
72117;SDS011;59992;47.490;8.736;2023-05-21T08:17:46;11.00;;;8.70;;
72117;SDS011;59992;47.490;8.736;2023-05-21T08:20:35;12.30;;;9.20;;
72117;SDS011;59992;47.490;8.736;2023-05-21T08:23:25;11.30;;;8.00;;
72117;SDS011;59992;47.490;8.736;2023-05-21T08:26:15;13.10;;;9.60;;
72117;SDS011;59992;47.490;8.736;2023-05-21T08:29:05;11.60;;;8.80;;
72117;SDS011;59992;47.490;8.736;2023-05-21T08:31:55;11.40;;;9.20;;
72117;SDS011;59992;47.490;8.736;2023-05-21T08:34:54;10.70;;;8.30;;
72117;SDS011;59992;47.490;8.736;2023-05-21T08:37:58;12.10;;;9.20;;
72117;SDS011;59992;47.490;8.736;2023-05-21T08:40:48;10.50;;;8.20;;
72117;SDS011;59992;47.490;8.736;2023-05-21T08:43:41;9.50;;;7.70;;
72117;SDS011;59992;47.490;8.736;2023-05-21T08:46:33;10.30;;;8.80;;
72117;SDS011;59992;47.490;8.736;2023-05-21T08:49:27;10.50;;;8.40;;
72117;SDS011;59992;47.490;8.736;2023-05-21T08:52:21;12.00;;;8.40;;
72117;SDS011;59992;47.490;8.736;2023-05-21T08:55:13;11.00;;;8.10;;
72117;SDS011;59992;47.490;8.736;2023-05-21T08:58:03;9.60;;;7.90;;
72117;SDS011;59992;47.490;8.736;2023-05-21T09:00:54;8.70;;;7.60;;
72117;SDS011;59992;47.490;8.736;2023-05-21T09:03:45;10.30;;;8.00;;
72117;SDS011;59992;47.490;8.736;2023-05-21T09:06:39;8.70;;;7.40;;
72117;SDS011;59992;47.490;8.736;2023-05-21T09:09:31;10.70;;;7.50;;
72117;SDS011;59992;47.490;8.736;2023-05-21T09:12:25;9.00;;;6.80;;
72117;SDS011;59992;47.490;8.736;2023-05-21T09:15:16;9.20;;;6.80;;
72117;SDS011;59992;47.490;8.736;2023-05-21T09:18:06;8.30;;;6.50;;
72117;SDS011;59992;47.490;8.736;2023-05-21T09:20:57;10.00;;;7.00;;
72117;SDS011;59992;47.490;8.736;2023-05-21T09:24:09;8.10;;;6.20;;
72117;SDS011;59992;47.490;8.736;2023-05-21T09:27:01;8.90;;;6.50;;
72117;SDS011;59992;47.490;8.736;2023-05-21T09:29:53;8.60;;;6.80;;
72117;SDS011;59992;47.490;8.736;2023-05-21T09:32:44;9.70;;;6.40;;
72117;SDS011;59992;47.490;8.736;2023-05-21T09:35:47;14.00;;;7.90;;
72117;SDS011;59992;47.490;8.736;2023-05-21T09:38:37;11.40;;;7.00;;
72117;SDS011;59992;47.490;8.736;2023-05-21T09:41:33;11.10;;;7.60;;
72117;SDS011;59992;47.490;8.736;2023-05-21T09:44:23;8.20;;;6.80;;
72117;SDS011;59992;47.490;8.736;2023-05-21T09:47:13;10.00;;;7.10;;
72117;SDS011;59992;47.490;8.736;2023-05-21T09:50:09;9.20;;;7.10;;
72117;SDS011;59992;47.490;8.736;2023-05-21T09:52:59;8.40;;;7.00;;
72117;SDS011;59992;47.490;8.736;2023-05-21T09:55:49;10.20;;;7.60;;
72117;SDS011;59992;47.490;8.736;2023-05-21T09:58:45;10.80;;;7.10;;
72117;SDS011;59992;47.490;8.736;2023-05-21T10:01:35;10.60;;;7.30;;
72117;SDS011;59992;47.490;8.736;2023-05-21T10:04:25;10.90;;;6.90;;
72117;SDS011;59992;47.490;8.736;2023-05-21T10:07:17;11.60;;;7.10;;
72117;SDS011;59992;47.490;8.736;2023-05-21T10:10:12;9.20;;;6.40;;
72117;SDS011;59992;47.490;8.736;2023-05-21T10:13:04;10.20;;;6.90;;
72117;SDS011;59992;47.490;8.736;2023-05-21T10:16:00;8.90;;;6.70;;
72117;SDS011;59992;47.490;8.736;2023-05-21T10:18:51;8.00;;;6.00;;
72117;SDS011;59992;47.490;8.736;2023-05-21T10:21:41;11.00;;;6.70;;
72117;SDS011;59992;47.490;8.736;2023-05-21T10:24:33;9.00;;;6.40;;
72117;SDS011;59992;47.490;8.736;2023-05-21T10:27:24;9.30;;;7.20;;
72117;SDS011;59992;47.490;8.736;2023-05-21T10:30:16;8.90;;;6.80;;
72117;SDS011;59992;47.490;8.736;2023-05-21T10:33:08;11.50;;;8.00;;
72117;SDS011;59992;47.490;8.736;2023-05-21T10:35:59;10.60;;;7.70;;
72117;SDS011;59992;47.490;8.736;2023-05-21T10:38:49;10.10;;;7.20;;
72117;SDS011;59992;47.490;8.736;2023-05-21T10:41:42;9.60;;;7.90;;
72117;SDS011;59992;47.490;8.736;2023-05-21T10:44:42;10.10;;;7.40;;
72117;SDS011;59992;47.490;8.736;2023-05-21T10:47:51;8.60;;;6.40;;
72117;SDS011;59992;47.490;8.736;2023-05-21T10:51:03;9.30;;;7.00;;
72117;SDS011;59992;47.490;8.736;2023-05-21T10:54:19;10.30;;;7.60;;
72117;SDS011;59992;47.490;8.736;2023-05-21T10:57:36;10.80;;;7.10;;
72117;SDS011;59992;47.490;8.736;2023-05-21T11:00:40;8.50;;;6.90;;
72117;SDS011;59992;47.490;8.736;2023-05-21T11:03:32;10.80;;;7.10;;
72117;SDS011;59992;47.490;8.736;2023-05-21T11:06:25;8.60;;;6.20;;
72117;SDS011;59992;47.490;8.736;2023-05-21T11:09:15;8.40;;;6.50;;
72117;SDS011;59992;47.490;8.736;2023-05-21T11:12:06;8.80;;;5.90;;
72117;SDS011;59992;47.490;8.736;2023-05-21T11:14:59;12.50;;;6.80;;
72117;SDS011;59992;47.490;8.736;2023-05-21T11:17:49;13.60;;;7.20;;
72117;SDS011;59992;47.490;8.736;2023-05-21T11:20:45;9.40;;;6.20;;
72117;SDS011;59992;47.490;8.736;2023-05-21T11:23:48;8.10;;;6.00;;
72117;SDS011;59992;47.490;8.736;2023-05-21T11:26:59;8.40;;;5.20;;
72117;SDS011;59992;47.490;8.736;2023-05-21T11:29:53;8.20;;;5.50;;
72117;SDS011;59992;47.490;8.736;2023-05-21T11:36:13;7.50;;;5.20;;
72117;SDS011;59992;47.490;8.736;2023-05-21T11:39:09;7.90;;;5.10;;
72117;SDS011;59992;47.490;8.736;2023-05-21T11:42:01;5.90;;;4.10;;
72117;SDS011;59992;47.490;8.736;2023-05-21T11:44:52;5.90;;;4.00;;
72117;SDS011;59992;47.490;8.736;2023-05-21T11:47:43;7.00;;;3.90;;
72117;SDS011;59992;47.490;8.736;2023-05-21T11:50:35;6.30;;;3.60;;
72117;SDS011;59992;47.490;8.736;2023-05-21T11:53:29;6.60;;;3.50;;
72117;SDS011;59992;47.490;8.736;2023-05-21T11:56:19;6.60;;;3.90;;
72117;SDS011;59992;47.490;8.736;2023-05-21T11:59:14;6.50;;;4.80;;
72117;SDS011;59992;47.490;8.736;2023-05-21T12:02:04;9.80;;;4.60;;
72117;SDS011;59992;47.490;8.736;2023-05-21T12:04:55;5.90;;;3.80;;
72117;SDS011;59992;47.490;8.736;2023-05-21T12:07:46;4.70;;;3.70;;
72117;SDS011;59992;47.490;8.736;2023-05-21T12:10:37;8.80;;;3.90;;
72117;SDS011;59992;47.490;8.736;2023-05-21T12:13:28;5.80;;;4.00;;
72117;SDS011;59992;47.490;8.736;2023-05-21T12:16:18;6.80;;;4.40;;
72117;SDS011;59992;47.490;8.736;2023-05-21T12:19:09;6.40;;;4.40;;
72117;SDS011;59992;47.490;8.736;2023-05-21T12:22:00;5.90;;;4.40;;
72117;SDS011;59992;47.490;8.736;2023-05-21T12:24:51;7.60;;;5.10;;
72117;SDS011;59992;47.490;8.736;2023-05-21T12:27:42;8.40;;;5.40;;
72117;SDS011;59992;47.490;8.736;2023-05-21T12:30:33;6.80;;;4.90;;
72117;SDS011;59992;47.490;8.736;2023-05-21T12:33:23;6.80;;;4.70;;
72117;SDS011;59992;47.490;8.736;2023-05-21T12:36:24;6.30;;;4.80;;
72117;SDS011;59992;47.490;8.736;2023-05-21T12:39:16;6.90;;;4.60;;
72117;SDS011;59992;47.490;8.736;2023-05-21T12:42:07;8.40;;;4.50;;
72117;SDS011;59992;47.490;8.736;2023-05-21T12:44:57;6.10;;;4.00;;
72117;SDS011;59992;47.490;8.736;2023-05-21T12:47:48;7.00;;;4.50;;
72117;SDS011;59992;47.490;8.736;2023-05-21T12:50:42;7.40;;;4.70;;
72117;SDS011;59992;47.490;8.736;2023-05-21T12:53:36;5.80;;;3.80;;
72117;SDS011;59992;47.490;8.736;2023-05-21T12:56:29;5.80;;;3.90;;
72117;SDS011;59992;47.490;8.736;2023-05-21T12:59:42;6.30;;;3.40;;
72117;SDS011;59992;47.490;8.736;2023-05-21T13:02:34;3.90;;;1.90;;
72117;SDS011;59992;47.490;8.736;2023-05-21T13:05:26;3.00;;;2.10;;
72117;SDS011;59992;47.490;8.736;2023-05-21T13:08:16;3.00;;;1.90;;
72117;SDS011;59992;47.490;8.736;2023-05-21T13:11:06;3.90;;;2.40;;
72117;SDS011;59992;47.490;8.736;2023-05-21T13:13:56;3.90;;;2.40;;
72117;SDS011;59992;47.490;8.736;2023-05-21T13:16:47;4.40;;;2.50;;
72117;SDS011;59992;47.490;8.736;2023-05-21T13:19:36;3.60;;;2.40;;
72117;SDS011;59992;47.490;8.736;2023-05-21T13:22:26;4.20;;;2.20;;
72117;SDS011;59992;47.490;8.736;2023-05-21T13:25:17;4.70;;;3.00;;
72117;SDS011;59992;47.490;8.736;2023-05-21T13:28:08;3.50;;;2.80;;
72117;SDS011;59992;47.490;8.736;2023-05-21T13:31:01;3.30;;;2.40;;
72117;SDS011;59992;47.490;8.736;2023-05-21T13:33:51;3.20;;;2.70;;
72117;SDS011;59992;47.490;8.736;2023-05-21T13:36:41;4.30;;;2.90;;
72117;SDS011;59992;47.490;8.736;2023-05-21T13:39:31;4.30;;;2.80;;
72117;SDS011;59992;47.490;8.736;2023-05-21T13:42:22;5.30;;;2.80;;
72117;SDS011;59992;47.490;8.736;2023-05-21T13:45:13;2.70;;;2.20;;
72117;SDS011;59992;47.490;8.736;2023-05-21T13:48:05;5.10;;;3.40;;
72117;SDS011;59992;47.490;8.736;2023-05-21T13:50:55;4.50;;;3.20;;
72117;SDS011;59992;47.490;8.736;2023-05-21T13:53:45;4.50;;;3.00;;
72117;SDS011;59992;47.490;8.736;2023-05-21T13:56:35;3.90;;;2.70;;
72117;SDS011;59992;47.490;8.736;2023-05-21T13:59:25;4.20;;;3.00;;
72117;SDS011;59992;47.490;8.736;2023-05-21T14:02:15;4.00;;;3.00;;
72117;SDS011;59992;47.490;8.736;2023-05-21T14:05:06;4.90;;;2.90;;
72117;SDS011;59992;47.490;8.736;2023-05-21T14:07:57;4.30;;;3.10;;
72117;SDS011;59992;47.490;8.736;2023-05-21T14:10:49;5.10;;;3.10;;
72117;SDS011;59992;47.490;8.736;2023-05-21T14:13:39;4.10;;;3.10;;
72117;SDS011;59992;47.490;8.736;2023-05-21T14:16:29;5.20;;;3.10;;
72117;SDS011;59992;47.490;8.736;2023-05-21T14:19:19;5.40;;;2.90;;
72117;SDS011;59992;47.490;8.736;2023-05-21T14:22:09;4.00;;;3.10;;
72117;SDS011;59992;47.490;8.736;2023-05-21T14:24:59;5.70;;;3.20;;
72117;SDS011;59992;47.490;8.736;2023-05-21T14:27:50;5.60;;;3.50;;
72117;SDS011;59992;47.490;8.736;2023-05-21T14:30:40;4.50;;;3.40;;
72117;SDS011;59992;47.490;8.736;2023-05-21T14:33:31;4.90;;;3.30;;
72117;SDS011;59992;47.490;8.736;2023-05-21T14:36:22;4.00;;;3.10;;
72117;SDS011;59992;47.490;8.736;2023-05-21T14:39:12;4.50;;;2.80;;
72117;SDS011;59992;47.490;8.736;2023-05-21T14:42:03;4.50;;;3.00;;
72117;SDS011;59992;47.490;8.736;2023-05-21T14:44:54;5.00;;;2.80;;
72117;SDS011;59992;47.490;8.736;2023-05-21T14:47:44;2.70;;;2.30;;
72117;SDS011;59992;47.490;8.736;2023-05-21T14:50:34;6.00;;;3.50;;
72117;SDS011;59992;47.490;8.736;2023-05-21T14:53:24;4.00;;;2.30;;
72117;SDS011;59992;47.490;8.736;2023-05-21T14:56:15;3.90;;;2.50;;
72117;SDS011;59992;47.490;8.736;2023-05-21T14:59:07;4.80;;;3.00;;
72117;SDS011;59992;47.490;8.736;2023-05-21T15:01:59;3.60;;;2.40;;
72117;SDS011;59992;47.490;8.736;2023-05-21T15:04:49;4.40;;;2.60;;
72117;SDS011;59992;47.490;8.736;2023-05-21T15:07:40;5.50;;;4.70;;
72117;SDS011;59992;47.490;8.736;2023-05-21T15:10:30;4.20;;;2.20;;
72117;SDS011;59992;47.490;8.736;2023-05-21T15:13:21;5.50;;;2.10;;
72117;SDS011;59992;47.490;8.736;2023-05-21T15:16:13;2.70;;;1.70;;
72117;SDS011;59992;47.490;8.736;2023-05-21T15:19:03;5.20;;;2.00;;
72117;SDS011;59992;47.490;8.736;2023-05-21T15:21:54;7.10;;;2.90;;
72117;SDS011;59992;47.490;8.736;2023-05-21T15:24:44;4.10;;;2.10;;
72117;SDS011;59992;47.490;8.736;2023-05-21T15:27:34;3.20;;;2.10;;
72117;SDS011;59992;47.490;8.736;2023-05-21T15:30:24;3.40;;;2.20;;
72117;SDS011;59992;47.490;8.736;2023-05-21T15:33:14;2.70;;;2.00;;
72117;SDS011;59992;47.490;8.736;2023-05-21T15:36:05;4.10;;;1.90;;
72117;SDS011;59992;47.490;8.736;2023-05-21T15:38:56;3.00;;;2.00;;
72117;SDS011;59992;47.490;8.736;2023-05-21T15:41:49;3.70;;;2.30;;
72117;SDS011;59992;47.490;8.736;2023-05-21T15:44:40;4.40;;;2.30;;
72117;SDS011;59992;47.490;8.736;2023-05-21T15:47:31;3.50;;;2.00;;
72117;SDS011;59992;47.490;8.736;2023-05-21T15:50:21;2.60;;;2.00;;
72117;SDS011;59992;47.490;8.736;2023-05-21T15:53:11;4.80;;;2.00;;
72117;SDS011;59992;47.490;8.736;2023-05-21T15:56:01;5.10;;;2.60;;
72117;SDS011;59992;47.490;8.736;2023-05-21T15:58:51;3.60;;;2.50;;
72117;SDS011;59992;47.490;8.736;2023-05-21T16:01:43;4.00;;;2.70;;
72117;SDS011;59992;47.490;8.736;2023-05-21T16:04:34;4.70;;;2.80;;
72117;SDS011;59992;47.490;8.736;2023-05-21T16:07:25;4.70;;;2.80;;
72117;SDS011;59992;47.490;8.736;2023-05-21T16:10:15;4.00;;;2.50;;
72117;SDS011;59992;47.490;8.736;2023-05-21T16:13:05;3.50;;;2.50;;
72117;SDS011;59992;47.490;8.736;2023-05-21T16:15:55;4.90;;;2.90;;
72117;SDS011;59992;47.490;8.736;2023-05-21T16:18:45;3.80;;;2.80;;
72117;SDS011;59992;47.490;8.736;2023-05-21T16:21:36;4.60;;;2.80;;
72117;SDS011;59992;47.490;8.736;2023-05-21T16:24:26;6.20;;;3.00;;
72117;SDS011;59992;47.490;8.736;2023-05-21T16:27:16;4.90;;;3.40;;
72117;SDS011;59992;47.490;8.736;2023-05-21T16:30:07;4.90;;;2.80;;
72117;SDS011;59992;47.490;8.736;2023-05-21T16:32:58;3.60;;;2.50;;
72117;SDS011;59992;47.490;8.736;2023-05-21T16:35:50;4.60;;;2.80;;
72117;SDS011;59992;47.490;8.736;2023-05-21T16:38:41;4.50;;;3.10;;
72117;SDS011;59992;47.490;8.736;2023-05-21T16:41:31;5.30;;;3.40;;
72117;SDS011;59992;47.490;8.736;2023-05-21T16:44:22;6.60;;;3.00;;
72117;SDS011;59992;47.490;8.736;2023-05-21T16:47:13;5.80;;;3.00;;
72117;SDS011;59992;47.490;8.736;2023-05-21T16:50:04;5.60;;;3.20;;
72117;SDS011;59992;47.490;8.736;2023-05-21T16:52:59;7.70;;;3.70;;
72117;SDS011;59992;47.490;8.736;2023-05-21T16:55:52;6.60;;;3.10;;
72117;SDS011;59992;47.490;8.736;2023-05-21T16:58:42;5.90;;;3.20;;
72117;SDS011;59992;47.490;8.736;2023-05-21T17:01:32;7.40;;;3.60;;
72117;SDS011;59992;47.490;8.736;2023-05-21T17:04:23;4.40;;;3.10;;
72117;SDS011;59992;47.490;8.736;2023-05-21T17:07:13;6.00;;;3.20;;